createdAt,value
2023-03-18T00:00:14.155Z,45.12
2023-03-18T00:01:14.138Z,47.79
2023-03-18T00:02:14.177Z,48.38
2023-03-18T00:03:14.121Z,46.63
2023-03-18T00:04:14.101Z,49.47
2023-03-18T00:05:14.091Z,50.88
2023-03-18T00:06:14.116Z,50.53
2023-03-18T00:07:14.084Z,51.51
2023-03-18T00:08:14.065Z,51.60
2023-03-18T00:09:14.051Z,53.50
2023-03-18T00:10:14.032Z,52.91
2023-03-18T00:11:14.038Z,59.37
2023-03-18T00:12:14.027Z,56.09
2023-03-18T00:13:13.999Z,55.69
2023-03-18T00:14:14.024Z,51.97
2023-03-18T00:15:14.008Z,48.00
2023-03-18T00:16:14.027Z,52.52
2023-03-18T00:17:13.945Z,49.02
2023-03-18T00:18:13.972Z,47.87
2023-03-18T00:19:13.928Z,52.20
2023-03-18T00:20:13.928Z,50.68
2023-03-18T00:21:14.040Z,52.57
2023-03-18T00:22:13.897Z,47.39
2023-03-18T00:23:13.896Z,49.07
2023-03-18T00:24:13.892Z,52.16
2023-03-18T00:25:13.865Z,51.59
2023-03-18T00:26:13.855Z,54.34
2023-03-18T00:27:13.858Z,51.80
2023-03-18T00:28:13.821Z,55.34
2023-03-18T00:29:13.812Z,52.67
2023-03-18T00:30:13.828Z,53.58
2023-03-18T00:31:14.011Z,50.03
2023-03-18T00:32:13.776Z,53.08
2023-03-18T00:33:13.803Z,54.24
2023-03-18T00:34:13.776Z,48.99
2023-03-18T00:35:13.740Z,55.15
2023-03-18T00:36:13.933Z,52.60
2023-03-18T00:37:13.720Z,53.95
2023-03-18T00:38:13.708Z,56.89
2023-03-18T00:39:13.717Z,54.19
2023-03-18T00:40:13.694Z,52.62
2023-03-18T00:41:13.718Z,51.93
2023-03-18T00:42:13.712Z,48.30
2023-03-18T00:43:13.659Z,51.12
2023-03-18T00:44:13.633Z,52.87
2023-03-18T00:45:13.653Z,47.71
2023-03-18T00:46:13.640Z,49.70
2023-03-18T00:47:13.599Z,52.75
2023-03-18T00:48:13.605Z,50.52
2023-03-18T00:49:13.576Z,50.63
2023-03-18T00:50:13.598Z,54.59
2023-03-18T00:51:13.559Z,49.68
2023-03-18T00:52:13.544Z,53.80
2023-03-18T00:53:13.539Z,49.58
2023-03-18T00:54:13.569Z,49.35
2023-03-18T00:55:13.528Z,51.47
2023-03-18T00:56:13.488Z,53.76
2023-03-18T00:57:13.505Z,52.02
2023-03-18T00:58:13.479Z,54.40
2023-03-18T00:59:13.472Z,46.39
2023-03-18T01:00:13.469Z,48.20
2023-03-18T01:01:13.483Z,49.94
2023-03-18T01:02:13.595Z,50.58
2023-03-18T01:03:13.434Z,51.80
2023-03-18T01:04:13.432Z,49.52
2023-03-18T01:05:13.418Z,48.65
2023-03-18T01:06:13.387Z,50.61
2023-03-18T01:07:13.413Z,51.16
2023-03-18T01:08:13.379Z,51.93
2023-03-18T01:09:13.344Z,50.03
2023-03-18T01:10:13.401Z,49.58
2023-03-18T01:11:13.357Z,50.57
2023-03-18T01:12:13.311Z,49.23
2023-03-18T01:13:13.339Z,49.76
2023-03-18T01:14:13.307Z,49.31
2023-03-18T01:15:13.291Z,46.21
2023-03-18T01:16:13.332Z,48.04
2023-03-18T01:17:13.279Z,50.53
2023-03-18T01:18:13.268Z,52.86
2023-03-18T01:19:13.254Z,50.64
2023-03-18T01:20:13.218Z,50.55
2023-03-18T01:21:13.209Z,49.34
2023-03-18T01:22:13.227Z,46.06
2023-03-18T01:23:13.195Z,45.69
2023-03-18T01:24:13.207Z,50.98
2023-03-18T01:25:13.190Z,57.00
2023-03-18T01:26:13.152Z,52.49
2023-03-18T01:27:13.146Z,49.45
2023-03-18T01:28:13.146Z,51.03
2023-03-18T01:29:13.158Z,47.08
2023-03-18T01:30:13.111Z,47.59
2023-03-18T01:31:13.117Z,50.23
2023-03-18T01:32:13.092Z,50.21
2023-03-18T01:33:13.075Z,50.24
2023-03-18T01:34:13.088Z,51.69
2023-03-18T01:35:13.052Z,53.06
2023-03-18T01:36:14.074Z,50.35
2023-03-18T01:37:14.036Z,46.54
2023-03-18T01:38:13.029Z,47.55
2023-03-18T01:39:13.030Z,48.39
2023-03-18T01:40:13.039Z,52.36
2023-03-18T01:41:12.996Z,50.85
2023-03-18T01:42:12.980Z,54.01
2023-03-18T01:43:12.975Z,54.69
2023-03-18T01:44:12.972Z,56.86
2023-03-18T01:45:12.938Z,55.68
2023-03-18T01:46:13.047Z,53.56
2023-03-18T01:47:12.906Z,54.74
2023-03-18T01:48:12.914Z,50.81
2023-03-18T01:49:12.921Z,51.09
2023-03-18T01:50:12.876Z,52.37
2023-03-18T01:51:12.860Z,51.72
2023-03-18T01:52:12.941Z,53.06
2023-03-18T01:53:12.863Z,54.73
2023-03-18T01:54:12.852Z,54.39
2023-03-18T01:55:12.864Z,54.35
2023-03-18T01:56:12.823Z,52.66
2023-03-18T01:57:12.856Z,53.95
2023-03-18T01:58:12.805Z,53.48
2023-03-18T01:59:12.817Z,52.88
2023-03-18T02:00:12.772Z,51.85
2023-03-18T02:01:12.768Z,54.11
2023-03-18T02:02:12.767Z,53.53
2023-03-18T02:03:12.755Z,52.84
2023-03-18T02:04:12.737Z,53.97
2023-03-18T02:05:12.718Z,55.48
2023-03-18T02:06:12.705Z,54.57
2023-03-18T02:07:12.704Z,54.84
2023-03-18T02:08:12.698Z,56.23
2023-03-18T02:09:12.678Z,56.19
2023-03-18T02:10:12.686Z,54.23
2023-03-18T02:11:12.661Z,56.42
2023-03-18T02:12:12.637Z,59.08
2023-03-18T02:13:12.636Z,59.21
2023-03-18T02:14:12.633Z,57.75
2023-03-18T02:15:12.632Z,58.97
2023-03-18T02:16:12.641Z,58.43
2023-03-18T02:17:12.596Z,60.68
2023-03-18T02:18:12.587Z,56.97
2023-03-18T02:19:12.577Z,58.58
2023-03-18T02:20:12.615Z,60.31
2023-03-18T02:21:12.596Z,57.00
2023-03-18T02:22:12.557Z,59.23
2023-03-18T02:23:12.542Z,60.25
2023-03-18T02:24:12.523Z,59.91
2023-03-18T02:25:13.526Z,57.82
2023-03-18T02:26:12.513Z,58.37
2023-03-18T02:27:12.496Z,55.87
2023-03-18T02:28:12.470Z,57.90
2023-03-18T02:29:12.469Z,58.27
2023-03-18T02:30:12.451Z,58.08
2023-03-18T02:31:12.477Z,57.59
2023-03-18T02:32:12.446Z,56.36
2023-03-18T02:33:12.480Z,53.19
2023-03-18T02:34:12.407Z,54.42
2023-03-18T02:35:12.415Z,55.78
2023-03-18T02:36:13.376Z,53.46
2023-03-18T02:37:12.387Z,52.92
2023-03-18T02:38:12.376Z,53.25
2023-03-18T02:39:12.360Z,53.24
2023-03-18T02:40:12.368Z,52.70
2023-03-18T02:41:12.347Z,53.77
2023-03-18T02:42:12.333Z,56.23
2023-03-18T02:43:12.320Z,53.34
2023-03-18T02:44:12.315Z,53.08
2023-03-18T02:45:12.290Z,53.32
2023-03-18T02:46:12.311Z,52.70
2023-03-18T02:47:13.261Z,52.55
2023-03-18T02:48:12.290Z,56.08
2023-03-18T02:49:12.248Z,53.33
2023-03-18T02:50:12.231Z,53.97
2023-03-18T02:51:12.222Z,55.60
2023-03-18T02:52:12.225Z,50.97
2023-03-18T02:53:12.207Z,50.21
2023-03-18T02:54:12.199Z,53.26
2023-03-18T02:55:12.170Z,53.94
2023-03-18T02:56:12.182Z,50.96
2023-03-18T02:57:12.173Z,48.43
2023-03-18T02:58:12.190Z,49.92
2023-03-18T02:59:12.149Z,51.67
2023-03-18T03:00:12.139Z,48.44
2023-03-18T03:01:12.139Z,47.03
2023-03-18T03:02:12.169Z,46.33
2023-03-18T03:03:12.207Z,51.52
2023-03-18T03:04:12.095Z,48.40
2023-03-18T03:05:12.069Z,46.61
2023-03-18T03:06:12.068Z,50.64
2023-03-18T03:07:12.069Z,57.06
2023-03-18T03:08:12.039Z,50.48
2023-03-18T03:09:12.036Z,52.78
2023-03-18T03:10:12.035Z,56.98
2023-03-18T03:11:12.006Z,50.30
2023-03-18T03:12:12.007Z,54.17
2023-03-18T03:13:11.997Z,53.43
2023-03-18T03:14:11.972Z,46.51
2023-03-18T03:15:11.969Z,45.88
2023-03-18T03:16:11.998Z,48.51
2023-03-18T03:17:11.949Z,54.55
2023-03-18T03:18:11.934Z,50.06
2023-03-18T03:19:11.933Z,51.46
2023-03-18T03:20:11.917Z,51.21
2023-03-18T03:21:11.892Z,55.16
2023-03-18T03:22:11.895Z,48.10
2023-03-18T03:23:11.887Z,53.05
2023-03-18T03:24:11.888Z,53.41
2023-03-18T03:25:11.865Z,53.29
2023-03-18T03:26:11.861Z,46.51
2023-03-18T03:27:11.828Z,46.95
2023-03-18T03:28:11.825Z,47.76
2023-03-18T03:29:11.835Z,45.27
2023-03-18T03:30:11.796Z,45.99
2023-03-18T03:31:11.865Z,49.01
2023-03-18T03:32:11.779Z,45.67
2023-03-18T03:33:11.890Z,53.32
2023-03-18T03:34:11.787Z,52.67
2023-03-18T03:35:11.748Z,50.45
2023-03-18T03:36:11.790Z,47.22
2023-03-18T03:37:11.718Z,53.38
2023-03-18T03:38:11.710Z,53.71
2023-03-18T03:39:11.731Z,48.22
2023-03-18T03:40:11.700Z,49.01
2023-03-18T03:41:11.726Z,52.52
2023-03-18T03:42:11.680Z,52.64
2023-03-18T03:43:11.652Z,51.73
2023-03-18T03:44:11.675Z,54.82
2023-03-18T03:45:11.663Z,47.56
2023-03-18T03:46:11.674Z,52.55
2023-03-18T03:47:11.637Z,50.56
2023-03-18T03:48:11.607Z,52.29
2023-03-18T03:49:11.593Z,52.00
2023-03-18T03:50:11.677Z,53.51
2023-03-18T03:51:11.594Z,51.04
2023-03-18T03:52:11.565Z,52.80
2023-03-18T03:53:11.554Z,59.22
2023-03-18T03:54:11.595Z,54.20
2023-03-18T03:55:11.541Z,52.04
2023-03-18T03:56:11.554Z,52.77
2023-03-18T03:57:11.533Z,49.17
2023-03-18T03:58:11.513Z,50.78
2023-03-18T03:59:11.514Z,52.17
2023-03-18T04:00:11.494Z,55.40
2023-03-18T04:01:11.478Z,54.03
2023-03-18T04:02:11.466Z,46.83
2023-03-18T04:03:11.455Z,48.72
2023-03-18T04:04:11.510Z,50.43
2023-03-18T04:05:11.446Z,53.39
2023-03-18T04:06:11.431Z,53.75
2023-03-18T04:07:11.420Z,54.29
2023-03-18T04:08:11.411Z,51.38
2023-03-18T04:09:11.414Z,52.39
2023-03-18T04:10:11.382Z,54.26
2023-03-18T04:11:11.389Z,51.70
2023-03-18T04:12:11.376Z,53.55
2023-03-18T04:13:11.357Z,50.19
2023-03-18T04:14:11.352Z,52.69
2023-03-18T04:15:11.344Z,49.35
2023-03-18T04:16:11.342Z,51.68
2023-03-18T04:17:11.310Z,50.69
2023-03-18T04:18:11.303Z,52.49
2023-03-18T04:19:11.283Z,54.13
2023-03-18T04:20:11.325Z,56.34
2023-03-18T04:21:11.289Z,52.31
2023-03-18T04:22:11.274Z,52.73
2023-03-18T04:23:11.256Z,48.14
2023-03-18T04:24:11.251Z,50.91
2023-03-18T04:25:11.256Z,48.80
2023-03-18T04:26:11.239Z,52.93
2023-03-18T04:27:11.213Z,54.09
2023-03-18T04:28:11.205Z,54.61
2023-03-18T04:29:11.180Z,50.10
2023-03-18T04:30:11.177Z,52.80
2023-03-18T04:31:11.293Z,52.90
2023-03-18T04:32:11.180Z,52.86
2023-03-18T04:33:11.207Z,51.09
2023-03-18T04:34:11.152Z,53.36
2023-03-18T04:35:11.159Z,55.04
2023-03-18T04:36:11.168Z,52.61
2023-03-18T04:37:11.107Z,49.49
2023-03-18T04:38:11.099Z,53.51
2023-03-18T04:39:11.093Z,50.96
2023-03-18T04:40:11.085Z,58.35
2023-03-18T04:41:11.067Z,54.14
2023-03-18T04:42:11.045Z,54.98
2023-03-18T04:43:11.047Z,52.49
2023-03-18T04:44:11.022Z,53.14
2023-03-18T04:45:11.013Z,52.35
2023-03-18T04:46:11.147Z,55.18
2023-03-18T04:47:10.999Z,52.56
2023-03-18T04:48:10.976Z,54.33
2023-03-18T04:49:10.986Z,56.15
2023-03-18T04:50:10.957Z,56.45
2023-03-18T04:51:10.939Z,55.86
2023-03-18T04:52:10.951Z,54.73
2023-03-18T04:53:10.921Z,52.01
2023-03-18T04:54:10.921Z,53.71
2023-03-18T04:55:10.968Z,54.08
2023-03-18T04:56:10.901Z,50.82
2023-03-18T04:57:10.884Z,52.66
2023-03-18T04:58:10.887Z,57.12
2023-03-18T04:59:10.860Z,49.20
2023-03-18T05:00:11.875Z,48.40
2023-03-18T05:01:10.873Z,52.66
2023-03-18T05:02:10.846Z,56.59
2023-03-18T05:03:10.816Z,55.11
2023-03-18T05:04:10.932Z,55.23
2023-03-18T05:05:10.791Z,55.30
2023-03-18T05:06:10.791Z,55.61
2023-03-18T05:07:10.793Z,48.91
2023-03-18T05:08:10.781Z,51.54
2023-03-18T05:09:10.765Z,51.73
2023-03-18T05:10:10.780Z,50.01
2023-03-18T05:11:10.755Z,52.33
2023-03-18T05:12:10.736Z,50.05
2023-03-18T05:13:10.718Z,52.23
2023-03-18T05:14:10.707Z,55.64
2023-03-18T05:15:12.047Z,54.57
2023-03-18T05:16:11.713Z,54.93
2023-03-18T05:17:10.669Z,54.62
2023-03-18T05:18:10.682Z,55.19
2023-03-18T05:19:10.649Z,54.14
2023-03-18T05:20:10.638Z,51.75
2023-03-18T05:21:10.638Z,55.23
2023-03-18T05:22:10.626Z,56.69
2023-03-18T05:23:10.630Z,57.75
2023-03-18T05:24:10.611Z,60.07
2023-03-18T05:25:10.591Z,56.54
2023-03-18T05:26:10.573Z,58.14
2023-03-18T05:27:10.591Z,58.12
2023-03-18T05:28:11.374Z,57.03
2023-03-18T05:29:11.566Z,56.52
2023-03-18T05:30:10.539Z,59.19
2023-03-18T05:31:10.543Z,60.58
2023-03-18T05:32:11.512Z,60.20
2023-03-18T05:33:10.523Z,55.27
2023-03-18T05:34:10.528Z,51.67
2023-03-18T05:35:11.488Z,53.93
2023-03-18T05:36:10.501Z,55.89
2023-03-18T05:37:10.475Z,59.39
2023-03-18T05:38:10.465Z,56.39
2023-03-18T05:39:10.430Z,56.63
2023-03-18T05:40:10.465Z,57.18
2023-03-18T05:41:10.431Z,58.57
2023-03-18T05:42:10.408Z,57.38
2023-03-18T05:43:10.428Z,59.34
2023-03-18T05:44:10.403Z,59.10
2023-03-18T05:45:10.380Z,56.02
2023-03-18T05:46:10.413Z,56.13
2023-03-18T05:47:10.376Z,55.79
2023-03-18T05:48:10.355Z,58.76
2023-03-18T05:49:10.358Z,58.79
2023-03-18T05:50:10.336Z,56.33
2023-03-18T05:51:10.312Z,57.55
2023-03-18T05:52:10.332Z,55.81
2023-03-18T05:53:10.293Z,55.17
2023-03-18T05:54:10.286Z,56.25
2023-03-18T05:55:11.288Z,55.46
2023-03-18T05:56:10.265Z,53.58
2023-03-18T05:57:10.250Z,54.62
2023-03-18T05:58:10.296Z,56.31
2023-03-18T05:59:10.238Z,56.49
2023-03-18T06:00:10.224Z,56.52
2023-03-18T06:01:10.218Z,59.09
2023-03-18T06:02:10.251Z,54.91
2023-03-18T06:03:10.255Z,56.62
2023-03-18T06:04:10.196Z,57.04
2023-03-18T06:05:10.231Z,56.98
2023-03-18T06:06:10.165Z,54.49
2023-03-18T06:07:10.137Z,56.43
2023-03-18T06:08:10.179Z,59.27
2023-03-18T06:09:10.130Z,57.33
2023-03-18T06:10:10.132Z,54.03
2023-03-18T06:11:10.121Z,59.52
2023-03-18T06:12:10.091Z,56.51
2023-03-18T06:13:10.093Z,55.40
2023-03-18T06:14:10.098Z,55.03
2023-03-18T06:15:10.077Z,57.68
2023-03-18T06:16:10.100Z,57.20
2023-03-18T06:17:10.058Z,57.88
2023-03-18T06:18:10.029Z,53.40
2023-03-18T06:19:10.027Z,55.20
2023-03-18T06:20:10.010Z,57.54
2023-03-18T06:21:10.009Z,56.98
2023-03-18T06:22:09.999Z,55.19
2023-03-18T06:23:10.006Z,58.88
2023-03-18T06:24:09.969Z,59.14
2023-03-18T06:25:09.968Z,55.53
2023-03-18T06:26:09.947Z,56.81
2023-03-18T06:27:09.954Z,56.20
2023-03-18T06:28:09.946Z,53.76
2023-03-18T06:29:09.930Z,55.76
2023-03-18T06:30:09.893Z,58.90
2023-03-18T06:31:09.952Z,58.67
2023-03-18T06:32:09.872Z,58.44
2023-03-18T06:33:10.142Z,56.11
2023-03-18T06:34:09.889Z,59.14
2023-03-18T06:35:09.846Z,56.55
2023-03-18T06:36:09.865Z,58.22
2023-03-18T06:37:09.825Z,56.02
2023-03-18T06:38:09.833Z,54.94
2023-03-18T06:39:09.812Z,56.40
2023-03-18T06:40:09.795Z,55.93
2023-03-18T06:41:09.782Z,56.47
2023-03-18T06:42:09.774Z,56.11
2023-03-18T06:43:09.774Z,57.16
2023-03-18T06:44:09.760Z,59.92
2023-03-18T06:45:09.770Z,57.91
2023-03-18T06:46:09.755Z,56.33
2023-03-18T06:47:09.731Z,56.74
2023-03-18T06:48:09.709Z,57.42
2023-03-18T06:49:09.694Z,56.06
2023-03-18T06:50:09.687Z,56.78
2023-03-18T06:51:09.671Z,57.23
2023-03-18T06:52:09.646Z,56.93
2023-03-18T06:53:09.652Z,55.65
2023-03-18T06:54:09.655Z,56.88
2023-03-18T06:55:09.630Z,59.23
2023-03-18T06:56:09.622Z,58.05
2023-03-18T06:57:09.592Z,55.81
2023-03-18T06:58:09.607Z,58.07
2023-03-18T06:59:09.612Z,56.83
2023-03-18T07:00:09.564Z,54.48
2023-03-18T07:01:09.667Z,56.15
2023-03-18T07:02:09.553Z,54.79
2023-03-18T07:03:09.523Z,53.69
2023-03-18T07:04:09.537Z,56.18
2023-03-18T07:05:09.510Z,54.16
2023-03-18T07:06:09.501Z,56.41
2023-03-18T07:07:09.504Z,56.44
2023-03-18T07:08:09.472Z,58.14
2023-03-18T07:09:09.473Z,56.56
2023-03-18T07:10:09.456Z,56.79
2023-03-18T07:11:09.454Z,56.93
2023-03-18T07:12:09.441Z,56.64
2023-03-18T07:13:09.415Z,55.33
2023-03-18T07:14:09.393Z,57.35
2023-03-18T07:15:10.390Z,56.44
2023-03-18T07:16:09.572Z,53.17
2023-03-18T07:17:09.363Z,56.63
2023-03-18T07:18:11.606Z,56.84
2023-03-18T07:19:10.350Z,57.39
2023-03-18T07:20:09.331Z,55.51
2023-03-18T07:21:10.332Z,55.07
2023-03-18T07:22:09.329Z,54.94
2023-03-18T07:23:09.319Z,53.99
2023-03-18T07:24:09.306Z,55.67
2023-03-18T07:25:09.273Z,56.27
2023-03-18T07:26:10.273Z,53.70
2023-03-18T07:27:09.259Z,55.21
2023-03-18T07:28:09.274Z,55.73
2023-03-18T07:29:09.252Z,56.33
2023-03-18T07:30:09.219Z,58.85
2023-03-18T07:31:09.239Z,55.24
2023-03-18T07:32:09.211Z,55.73
2023-03-18T07:33:09.256Z,55.49
2023-03-18T07:34:09.182Z,54.51
2023-03-18T07:35:09.179Z,57.21
2023-03-18T07:36:09.182Z,57.70
2023-03-18T07:37:09.141Z,54.47
2023-03-18T07:38:09.135Z,56.50
2023-03-18T07:39:09.138Z,56.38
2023-03-18T07:40:09.117Z,57.89
2023-03-18T07:41:09.124Z,54.64
2023-03-18T07:42:09.114Z,56.17
2023-03-18T07:43:09.076Z,56.40
2023-03-18T07:44:09.079Z,57.10
2023-03-18T07:45:09.078Z,54.87
2023-03-18T07:46:09.109Z,56.17
2023-03-18T07:47:09.043Z,58.43
2023-03-18T07:48:09.055Z,59.03
2023-03-18T07:49:09.099Z,57.51
2023-03-18T07:50:09.001Z,59.38
2023-03-18T07:51:09.082Z,56.22
2023-03-18T07:52:09.022Z,57.46
2023-03-18T07:53:08.953Z,58.76
2023-03-18T07:54:09.958Z,56.73
2023-03-18T07:55:08.954Z,58.38
2023-03-18T07:56:08.974Z,56.81
2023-03-18T07:57:08.963Z,55.51
2023-03-18T07:58:08.899Z,56.40
2023-03-18T07:59:08.890Z,57.96
2023-03-18T08:00:08.902Z,53.82
2023-03-18T08:01:08.950Z,55.21
2023-03-18T08:02:08.920Z,55.36
2023-03-18T08:03:08.876Z,55.66
2023-03-18T08:04:08.916Z,58.16
2023-03-18T08:05:08.969Z,57.57
2023-03-18T08:06:08.846Z,58.67
2023-03-18T08:07:08.817Z,52.20
2023-03-18T08:08:08.853Z,57.32
2023-03-18T08:09:08.769Z,56.77
2023-03-18T08:10:08.759Z,57.10
2023-03-18T08:11:08.801Z,59.89
2023-03-18T08:12:09.399Z,58.44
2023-03-18T08:13:08.769Z,59.10
2023-03-18T08:14:08.712Z,61.76
2023-03-18T08:15:08.732Z,59.90
2023-03-18T08:16:08.723Z,61.05
2023-03-18T08:17:08.701Z,62.59
2023-03-18T08:18:09.555Z,62.25
2023-03-18T08:19:08.711Z,63.96
2023-03-18T08:20:08.673Z,66.01
2023-03-18T08:21:08.655Z,63.20
2023-03-18T08:22:08.629Z,64.14
2023-03-18T08:23:08.627Z,61.05
2023-03-18T08:24:08.610Z,64.56
2023-03-18T08:25:08.591Z,65.14
2023-03-18T08:26:08.596Z,65.55
2023-03-18T08:27:08.598Z,63.30
2023-03-18T08:28:08.583Z,64.45
2023-03-18T08:29:08.602Z,64.04
2023-03-18T08:30:08.533Z,64.75
2023-03-18T08:31:08.613Z,66.96
2023-03-18T08:32:08.545Z,65.45
2023-03-18T08:33:08.632Z,62.83
2023-03-18T08:34:08.520Z,65.87
2023-03-18T08:35:08.473Z,60.86
2023-03-18T08:36:08.533Z,61.64
2023-03-18T08:37:08.514Z,60.82
2023-03-18T08:38:08.435Z,59.37
2023-03-18T08:39:08.449Z,62.57
2023-03-18T08:40:08.452Z,58.37
2023-03-18T08:41:08.416Z,57.75
2023-03-18T08:42:08.400Z,58.48
2023-03-18T08:43:08.388Z,57.31
2023-03-18T08:44:08.404Z,56.13
2023-03-18T08:45:08.384Z,55.93
2023-03-18T08:46:08.413Z,59.46
2023-03-18T08:47:08.402Z,58.55
2023-03-18T08:48:08.366Z,60.36
2023-03-18T08:49:08.352Z,58.14
2023-03-18T08:50:08.383Z,60.91
2023-03-18T08:51:08.455Z,58.17
2023-03-18T08:52:08.289Z,56.61
2023-03-18T08:53:08.299Z,55.29
2023-03-18T08:54:08.304Z,61.50
2023-03-18T08:55:08.301Z,57.17
2023-03-18T08:56:08.257Z,56.25
2023-03-18T08:57:08.249Z,55.47
2023-03-18T08:58:08.272Z,56.53
2023-03-18T08:59:08.229Z,58.56
2023-03-18T09:00:08.216Z,56.00
2023-03-18T09:01:10.706Z,59.14
2023-03-18T09:02:08.196Z,62.19
2023-03-18T09:03:08.216Z,56.30
2023-03-18T09:04:08.202Z,57.25
2023-03-18T09:05:08.157Z,58.10
2023-03-18T09:06:09.172Z,58.08
2023-03-18T09:07:08.132Z,55.99
2023-03-18T09:08:08.110Z,61.06
2023-03-18T09:09:08.114Z,58.75
2023-03-18T09:10:08.102Z,57.96
2023-03-18T09:11:08.109Z,57.69
2023-03-18T09:12:08.068Z,57.39
2023-03-18T09:13:08.062Z,58.83
2023-03-18T09:14:08.061Z,57.29
2023-03-18T09:15:08.064Z,54.21
2023-03-18T09:16:08.256Z,57.20
2023-03-18T09:17:08.033Z,57.75
2023-03-18T09:18:12.114Z,58.17
2023-03-18T09:19:09.012Z,57.72
2023-03-18T09:20:07.984Z,58.61
2023-03-18T09:21:07.994Z,58.09
2023-03-18T09:22:07.998Z,60.78
2023-03-18T09:23:08.012Z,58.18
2023-03-18T09:24:07.941Z,58.20
2023-03-18T09:25:07.939Z,56.75
2023-03-18T09:26:07.922Z,56.61
2023-03-18T09:27:07.910Z,57.14
2023-03-18T09:28:07.942Z,56.77
2023-03-18T09:29:07.896Z,54.22
2023-03-18T09:30:08.073Z,57.37
2023-03-18T09:31:07.939Z,62.10
2023-03-18T09:32:07.846Z,56.46
2023-03-18T09:33:07.878Z,57.00
2023-03-18T09:34:07.833Z,58.35
2023-03-18T09:35:07.831Z,57.09
2023-03-18T09:36:07.843Z,56.49
2023-03-18T09:37:07.797Z,56.42
2023-03-18T09:38:07.795Z,59.11
2023-03-18T09:39:07.788Z,58.13
2023-03-18T09:40:07.781Z,56.90
2023-03-18T09:41:07.770Z,57.42
2023-03-18T09:42:07.760Z,57.05
2023-03-18T09:43:07.753Z,58.30
2023-03-18T09:44:07.742Z,58.85
2023-03-18T09:45:07.703Z,61.88
2023-03-18T09:46:07.819Z,57.62
2023-03-18T09:47:07.890Z,59.62
2023-03-18T09:48:07.683Z,58.75
2023-03-18T09:49:07.694Z,58.87
2023-03-18T09:50:07.669Z,57.91
2023-03-18T09:51:07.678Z,56.69
2023-03-18T09:52:07.640Z,56.97
2023-03-18T09:53:07.659Z,58.87
2023-03-18T09:54:07.666Z,56.87
2023-03-18T09:55:07.604Z,55.70
2023-03-18T09:56:07.627Z,57.14
2023-03-18T09:57:07.661Z,56.02
2023-03-18T09:58:07.590Z,61.34
2023-03-18T09:59:07.589Z,59.10
2023-03-18T10:00:07.864Z,60.39
2023-03-18T10:01:07.595Z,61.54
2023-03-18T10:02:07.560Z,63.07
2023-03-18T10:03:07.521Z,60.37
2023-03-18T10:04:07.597Z,60.78
2023-03-18T10:05:07.522Z,63.36
2023-03-18T10:06:07.616Z,60.44
2023-03-18T10:07:07.510Z,62.64
2023-03-18T10:08:07.498Z,61.28
2023-03-18T10:09:07.519Z,61.21
2023-03-18T10:10:07.458Z,57.68
2023-03-18T10:11:07.471Z,57.90
2023-03-18T10:12:07.516Z,56.26
2023-03-18T10:13:07.419Z,60.21
2023-03-18T10:14:07.480Z,58.66
2023-03-18T10:15:07.405Z,63.42
2023-03-18T10:16:07.441Z,58.40
2023-03-18T10:17:07.370Z,58.66
2023-03-18T10:18:07.385Z,59.45
2023-03-18T10:19:07.374Z,56.55
2023-03-18T10:20:07.401Z,57.17
2023-03-18T10:21:07.352Z,62.09
2023-03-18T10:22:07.335Z,59.16
2023-03-18T10:23:07.333Z,56.41
2023-03-18T10:24:07.315Z,60.36
2023-03-18T10:25:07.295Z,64.29
2023-03-18T10:26:07.308Z,58.62
2023-03-18T10:27:07.414Z,56.53
2023-03-18T10:28:07.267Z,62.66
2023-03-18T10:29:07.281Z,59.98
2023-03-18T10:30:07.245Z,58.99
2023-03-18T10:31:07.314Z,61.37
2023-03-18T10:32:07.245Z,64.01
2023-03-18T10:33:07.278Z,64.54
2023-03-18T10:34:07.197Z,64.86
2023-03-18T10:35:07.234Z,62.79
2023-03-18T10:36:07.237Z,64.58
2023-03-18T10:37:07.172Z,61.88
2023-03-18T10:38:07.204Z,61.42
2023-03-18T10:39:07.146Z,58.99
2023-03-18T10:40:07.152Z,61.69
2023-03-18T10:41:39.758Z,63.83
2023-03-18T10:42:07.150Z,59.34
2023-03-18T10:43:07.119Z,61.75
2023-03-18T10:44:07.137Z,59.46
2023-03-18T10:45:07.101Z,60.39
2023-03-18T10:46:07.106Z,63.60
2023-03-18T10:47:07.158Z,64.17
2023-03-18T10:48:07.100Z,64.05
2023-03-18T10:49:07.104Z,67.12
2023-03-18T10:50:07.065Z,66.61
2023-03-18T10:51:07.030Z,64.00
2023-03-18T10:52:07.036Z,61.32
2023-03-18T10:53:07.029Z,59.20
2023-03-18T10:54:07.000Z,61.95
2023-03-18T10:55:07.008Z,60.18
2023-03-18T10:56:07.016Z,57.79
2023-03-18T10:57:06.983Z,55.71
2023-03-18T10:58:06.970Z,61.41
2023-03-18T10:59:06.970Z,58.85
2023-03-18T11:00:06.948Z,57.04
2023-03-18T11:01:06.919Z,56.31
2023-03-18T11:02:06.970Z,59.19
2023-03-18T11:03:06.929Z,60.86
2023-03-18T11:04:06.883Z,60.79
2023-03-18T11:05:06.871Z,60.82
2023-03-18T11:06:06.969Z,61.26
2023-03-18T11:07:06.836Z,56.44
2023-03-18T11:08:06.852Z,60.58
2023-03-18T11:09:06.848Z,58.55
2023-03-18T11:10:06.826Z,58.37
2023-03-18T11:11:06.832Z,56.90
2023-03-18T11:12:06.837Z,58.93
2023-03-18T11:13:06.808Z,57.51
2023-03-18T11:14:06.781Z,55.90
2023-03-18T11:15:06.788Z,54.83
2023-03-18T11:16:06.852Z,55.86
2023-03-18T11:17:06.747Z,57.72
2023-03-18T11:18:06.736Z,57.41
2023-03-18T11:19:06.751Z,59.06
2023-03-18T11:20:06.730Z,59.19
2023-03-18T11:21:06.757Z,58.75
2023-03-18T11:22:06.690Z,59.52
2023-03-18T11:23:06.720Z,58.74
2023-03-18T11:24:06.691Z,64.21
2023-03-18T11:25:06.641Z,58.68
2023-03-18T11:26:06.687Z,56.13
2023-03-18T11:27:06.644Z,59.53
2023-03-18T11:28:07.657Z,62.29
2023-03-18T11:29:06.656Z,62.12
2023-03-18T11:30:07.610Z,61.17
2023-03-18T11:31:07.631Z,60.72
2023-03-18T11:32:09.472Z,61.37
2023-03-18T11:33:07.686Z,61.66
2023-03-18T11:34:06.572Z,63.43
2023-03-18T11:35:06.534Z,59.69
2023-03-18T11:36:06.539Z,56.30
2023-03-18T11:37:06.533Z,61.97
2023-03-18T11:38:06.516Z,60.78
2023-03-18T11:39:06.549Z,58.66
2023-03-18T11:40:06.502Z,58.00
2023-03-18T11:41:06.767Z,57.80
2023-03-18T11:42:06.465Z,57.22
2023-03-18T11:43:06.478Z,57.85
2023-03-18T11:44:06.468Z,56.61
2023-03-18T11:45:06.432Z,58.90
2023-03-18T11:46:06.445Z,60.32
2023-03-18T11:47:06.494Z,59.11
2023-03-18T11:48:06.394Z,58.85
2023-03-18T11:49:06.406Z,55.91
2023-03-18T11:50:06.397Z,58.27
2023-03-18T11:51:06.361Z,57.62
2023-03-18T11:52:06.352Z,57.00
2023-03-18T11:53:06.361Z,55.38
2023-03-18T11:54:06.323Z,56.97
2023-03-18T11:55:06.383Z,56.62
2023-03-18T11:56:06.323Z,56.53
2023-03-18T11:57:06.305Z,55.66
2023-03-18T11:58:06.336Z,57.67
2023-03-18T11:59:06.300Z,56.07
2023-03-18T12:00:06.289Z,56.50
2023-03-18T12:01:06.282Z,58.04
2023-03-18T12:02:06.368Z,61.40
2023-03-18T12:03:06.230Z,57.13
2023-03-18T12:04:06.289Z,55.35
2023-03-18T12:05:06.316Z,54.98
2023-03-18T12:06:06.213Z,59.49
2023-03-18T12:07:06.203Z,58.20
2023-03-18T12:08:06.194Z,57.64
2023-03-18T12:09:06.207Z,54.92
2023-03-18T12:10:06.169Z,55.88
2023-03-18T12:11:06.202Z,57.97
2023-03-18T12:12:06.161Z,57.06
2023-03-18T12:13:06.129Z,59.94
2023-03-18T12:14:06.144Z,58.24
2023-03-18T12:15:06.138Z,59.23
2023-03-18T12:16:06.234Z,60.66
2023-03-18T12:17:06.118Z,57.99
2023-03-18T12:18:06.118Z,62.47
2023-03-18T12:19:06.072Z,60.32
2023-03-18T12:20:06.071Z,56.03
2023-03-18T12:21:06.070Z,57.64
2023-03-18T12:22:06.036Z,55.23
2023-03-18T12:23:06.028Z,55.14
2023-03-18T12:24:06.013Z,59.79
2023-03-18T12:25:06.043Z,53.97
2023-03-18T12:26:06.017Z,57.41
2023-03-18T12:27:05.965Z,57.48
2023-03-18T12:28:05.965Z,55.79
2023-03-18T12:29:05.995Z,58.74
2023-03-18T12:30:05.972Z,58.28
2023-03-18T12:31:05.925Z,55.41
2023-03-18T12:32:05.985Z,55.26
2023-03-18T12:33:06.019Z,56.38
2023-03-18T12:34:05.898Z,55.42
2023-03-18T12:35:05.932Z,57.96
2023-03-18T12:36:05.932Z,58.11
2023-03-18T12:37:05.879Z,57.06
2023-03-18T12:38:05.860Z,55.14
2023-03-18T12:39:05.881Z,60.73
2023-03-18T12:40:05.867Z,58.34
2023-03-18T12:41:05.822Z,57.60
2023-03-18T12:42:05.849Z,58.47
2023-03-18T12:43:05.808Z,59.28
2023-03-18T12:44:05.820Z,60.35
2023-03-18T12:45:05.818Z,59.75
2023-03-18T12:46:05.898Z,59.94
2023-03-18T12:47:05.745Z,59.25
2023-03-18T12:48:05.764Z,59.06
2023-03-18T12:49:05.790Z,60.86
2023-03-18T12:50:05.738Z,59.60
2023-03-18T12:51:05.743Z,55.72
2023-03-18T12:52:05.730Z,58.36